Time;durP1;ratioP1;P1;durP2;ratioP2;P2;SDS_P1;SDS_P2;PMS_P1;PMS_P2;Temp;Humidity;BMP_temperature;BMP_pressure;BME280_temperature;BME280_humidity;BME280_pressure;Samples;Min_cycle;Max_cycle;Signal;HPM_P1;HPM_P2
2024/02/05 00:02:15;;;;;;;8.07;4.97;;;23.30;99.90;;;;;;4936480;29;20424;-56
2024/02/05 00:04:41;;;;;;;7.55;5.18;;;23.20;99.90;;;;;;4936699;29;20020;-56
2024/02/05 00:07:07;;;;;;;7.57;5.43;;;23.20;99.90;;;;;;4936799;29;20107;-56
2024/02/05 00:09:33;;;;;;;7.07;5.20;;;23.20;99.90;;;;;;4936873;29;20151;-56
2024/02/05 00:11:59;;;;;;;6.75;4.80;;;23.20;99.90;;;;;;4936605;29;20043;-55
2024/02/05 00:14:25;;;;;;;6.93;4.85;;;23.20;99.90;;;;;;4936592;29;20028;-55
2024/02/05 00:16:51;;;;;;;7.90;5.03;;;23.20;99.90;;;;;;4936668;29;20035;-56
2024/02/05 00:19:17;;;;;;;8.00;5.32;;;23.20;99.90;;;;;;4936525;29;20053;-55
2024/02/05 00:21:43;;;;;;;5.60;4.47;;;23.10;99.90;;;;;;4936331;29;20035;-55
2024/02/05 00:24:08;;;;;;;6.55;4.72;;;23.10;99.90;;;;;;4919248;29;20027;-56
2024/02/05 00:26:34;;;;;;;6.80;4.78;;;23.10;99.90;;;;;;4936488;29;20035;-55
2024/02/05 00:29:00;;;;;;;7.10;5.13;;;23.10;99.90;;;;;;4936318;29;20025;-55
2024/02/05 00:31:26;;;;;;;7.30;5.40;;;23.00;99.90;;;;;;4936321;29;20031;-56
2024/02/05 00:33:51;;;;;;;9.48;5.43;;;23.10;99.90;;;;;;4936383;29;20388;-56
2024/02/05 00:36:17;;;;;;;9.48;4.90;;;23.10;99.90;;;;;;4936135;29;20055;-56
2024/02/05 00:38:43;;;;;;;8.52;4.80;;;23.10;99.90;;;;;;4936121;29;20023;-55
2024/02/05 00:41:08;;;;;;;6.60;4.65;;;23.00;99.90;;;;;;4935953;29;20067;-56
2024/02/05 00:43:35;;;;;;;7.25;5.15;;;23.00;99.90;;;;;;4936012;29;20031;-56
2024/02/05 00:46:00;;;;;;;7.60;4.95;;;23.00;99.90;;;;;;4936062;29;20082;-57
2024/02/05 00:48:26;;;;;;;8.95;5.15;;;23.00;99.90;;;;;;4935912;29;20035;-56
2024/02/05 00:50:52;;;;;;;7.07;5.30;;;23.00;99.90;;;;;;4936023;29;20107;-56
2024/02/05 00:53:18;;;;;;;6.97;5.10;;;22.90;99.90;;;;;;4935273;29;20036;-56
2024/02/05 00:55:43;;;;;;;7.65;5.05;;;23.00;99.90;;;;;;4934486;29;20071;-56
2024/02/05 00:58:09;;;;;;;6.93;4.80;;;22.90;99.90;;;;;;4935739;29;20031;-56
2024/02/05 01:00:35;;;;;;;7.45;4.32;;;22.90;99.90;;;;;;4935197;29;20118;-56
2024/02/05 01:03:02;;;;;;;6.57;4.80;;;22.90;99.90;;;;;;4935555;29;20046;-56
2024/02/05 01:05:28;;;;;;;6.28;4.47;;;22.90;99.90;;;;;;4935688;29;20020;-57
2024/02/05 01:07:53;;;;;;;6.38;4.95;;;22.90;99.90;;;;;;4935766;29;20050;-57
2024/02/05 01:10:19;;;;;;;5.82;4.60;;;22.90;99.90;;;;;;4935547;29;20027;-57
2024/02/05 01:12:45;;;;;;;6.55;4.45;;;22.80;99.90;;;;;;4935516;29;20028;-57
2024/02/05 01:15:11;;;;;;;6.97;5.00;;;22.80;99.90;;;;;;4935500;29;20034;-57
2024/02/05 01:17:36;;;;;;;7.05;4.80;;;22.80;99.90;;;;;;4935446;29;20031;-56
2024/02/05 01:20:10;;;;;;;5.85;4.30;;;22.80;99.90;;;;;;4935516;29;20028;-56
2024/02/05 01:22:38;;;;;;;6.13;4.78;;;22.80;99.90;;;;;;4935336;29;20028;-56
2024/02/05 01:25:08;;;;;;;7.25;4.85;;;22.80;99.90;;;;;;4935353;29;20552;-56
2024/02/05 01:27:33;;;;;;;8.02;4.72;;;22.80;99.90;;;;;;4935281;29;20136;-56
2024/02/05 01:29:59;;;;;;;6.78;4.78;;;22.70;99.90;;;;;;4935580;29;20123;-56
2024/02/05 01:32:25;;;;;;;6.82;4.65;;;22.70;99.90;;;;;;4935464;29;20034;-56
2024/02/05 01:34:51;;;;;;;7.32;5.00;;;22.70;99.90;;;;;;4935374;29;20102;-56
2024/02/05 01:37:17;;;;;;;7.10;4.75;;;22.70;99.90;;;;;;4935102;29;20456;-56
2024/02/05 01:39:44;;;;;;;7.30;4.25;;;22.70;99.90;;;;;;4935112;29;20070;-56
2024/02/05 01:42:09;;;;;;;7.35;4.80;;;22.70;99.90;;;;;;4935109;29;20388;-56
2024/02/05 01:44:36;;;;;;;5.90;4.68;;;22.70;99.90;;;;;;4935095;29;20477;-56
2024/02/05 01:47:03;;;;;;;6.28;4.68;;;22.60;99.90;;;;;;4935034;29;20028;-56
2024/02/05 01:49:29;;;;;;;5.65;4.53;;;22.70;99.90;;;;;;4934950;29;20060;-56
2024/02/05 01:51:57;;;;;;;5.95;4.53;;;22.60;99.90;;;;;;4935272;29;20023;-56
2024/02/05 01:54:24;;;;;;;7.78;4.57;;;22.60;99.90;;;;;;4935209;29;20472;-56
2024/02/05 01:56:53;;;;;;;6.05;4.60;;;22.60;99.90;;;;;;4934829;29;20068;-56
2024/02/05 01:59:20;;;;;;;6.53;4.80;;;22.60;99.90;;;;;;4934850;29;20447;-56
2024/02/05 02:01:47;;;;;;;5.67;4.17;;;22.60;99.90;;;;;;4935383;29;20075;-56
2024/02/05 02:04:13;;;;;;;10.07;4.85;;;22.50;99.90;;;;;;4935646;29;20027;-56
2024/02/05 02:06:41;;;;;;;6.50;4.70;;;22.50;99.90;;;;;;4938873;29;20473;-56
2024/02/05 02:09:10;;;;;;;6.45;4.32;;;22.50;99.90;;;;;;4939041;29;20266;-56
2024/02/05 02:11:39;;;;;;;6.00;3.97;;;22.50;99.90;;;;;;4938906;29;20027;-56
2024/02/05 02:14:05;;;;;;;6.85;4.55;;;22.50;99.90;;;;;;4938819;29;20031;-56
2024/02/05 02:16:31;;;;;;;5.80;4.15;;;22.50;99.90;;;;;;4938631;29;20054;-56
2024/02/05 02:18:58;;;;;;;6.18;4.35;;;22.50;99.90;;;;;;4939005;29;20024;-56
2024/02/05 02:21:26;;;;;;;6.50;4.28;;;22.50;99.90;;;;;;4938734;29;20067;-56
2024/02/05 02:23:52;;;;;;;7.65;4.63;;;22.50;99.90;;;;;;4938744;29;20412;-56
2024/02/05 02:26:18;;;;;;;5.72;4.30;;;22.40;99.90;;;;;;4938585;29;20090;-56
2024/02/05 02:28:44;;;;;;;5.47;4.25;;;22.40;99.90;;;;;;4938508;29;20032;-56
2024/02/05 02:31:10;;;;;;;6.47;4.75;;;22.40;99.90;;;;;;4938482;29;20075;-56
2024/02/05 02:34:06;;;;;;;5.75;4.28;;;22.40;99.90;;;;;;4938469;29;20034;-56
2024/02/05 02:36:38;;;;;;;6.38;5.05;;;22.40;99.90;;;;;;4938337;29;20055;-56
2024/02/05 02:39:20;;;;;;;7.15;4.22;;;22.40;99.90;;;;;;4921262;29;20459;-56
2024/02/05 02:41:48;;;;;;;6.93;5.13;;;22.30;99.90;;;;;;4938334;29;20027;-55
2024/02/05 02:44:16;;;;;;;6.00;4.38;;;22.30;99.90;;;;;;4938293;29;20102;-56
2024/02/05 02:46:43;;;;;;;5.05;4.00;;;22.30;99.90;;;;;;4921378;29;20432;-56
2024/02/05 02:49:08;;;;;;;6.38;4.03;;;22.30;99.90;;;;;;4938058;29;20532;-58
2024/02/05 02:51:34;;;;;;;7.25;3.80;;;22.30;99.90;;;;;;4938097;29;20028;-56
2024/02/05 02:54:02;;;;;;;5.60;4.28;;;22.30;99.90;;;;;;4936720;29;20030;-56
2024/02/05 02:56:29;;;;;;;6.00;4.57;;;22.30;99.90;;;;;;4921120;29;20443;-56
2024/02/05 02:58:56;;;;;;;4.85;3.78;;;22.30;99.90;;;;;;4937812;29;20119;-56
2024/02/05 03:01:21;;;;;;;6.25;4.40;;;22.20;99.90;;;;;;4938041;29;20048;-56
2024/02/05 03:03:47;;;;;;;6.25;3.75;;;22.20;99.90;;;;;;4937738;29;20071;-56
2024/02/05 03:06:14;;;;;;;5.78;4.43;;;22.20;99.90;;;;;;4937660;29;20020;-55
2024/02/05 03:08:39;;;;;;;5.93;3.85;;;22.20;99.90;;;;;;4937662;29;20100;-57
2024/02/05 03:11:05;;;;;;;6.75;3.83;;;22.20;99.90;;;;;;4937911;29;20543;-56
2024/02/05 03:13:31;;;;;;;6.65;4.07;;;22.20;99.90;;;;;;4937693;29;20331;-56
2024/02/05 03:15:58;;;;;;;5.18;3.75;;;22.20;99.90;;;;;;4937383;29;20032;-56
2024/02/05 03:18:24;;;;;;;5.65;3.92;;;22.20;99.90;;;;;;4937607;29;20056;-56
2024/02/05 03:20:50;;;;;;;4.85;3.70;;;22.20;99.90;;;;;;4937444;29;20035;-56
2024/02/05 03:23:16;;;;;;;5.22;4.07;;;22.10;99.90;;;;;;4937459;29;20028;-57
2024/02/05 03:25:42;;;;;;;5.75;3.80;;;22.10;99.90;;;;;;4937534;29;20496;-56
2024/02/05 03:28:08;;;;;;;5.60;4.25;;;22.10;99.90;;;;;;4920497;29;20067;-57
2024/02/05 03:30:35;;;;;;;4.03;3.33;;;22.10;99.90;;;;;;4937408;29;20547;-57
2024/02/05 03:33:02;;;;;;;6.80;3.80;;;22.10;99.90;;;;;;4937597;29;20028;-56
2024/02/05 03:35:29;;;;;;;5.25;3.67;;;22.10;99.90;;;;;;4937625;29;20028;-57
2024/02/05 03:37:55;;;;;;;4.07;3.47;;;22.10;99.90;;;;;;4937626;29;20058;-57
2024/02/05 03:40:22;;;;;;;5.05;4.03;;;22.10;99.90;;;;;;4937230;29;20392;-57
2024/02/05 03:42:53;;;;;;;4.47;3.08;;;22.10;99.90;;;;;;4937234;29;20031;-57
2024/02/05 03:45:19;;;;;;;5.47;3.10;;;22.10;99.90;;;;;;4937127;29;20016;-57
2024/02/05 03:47:45;;;;;;;4.30;3.47;;;22.10;99.90;;;;;;4936992;29;20027;-57
2024/02/05 03:50:11;;;;;;;4.50;3.58;;;22.00;99.90;;;;;;4920121;29;20026;-57
2024/02/05 03:52:39;;;;;;;4.45;3.35;;;22.00;99.90;;;;;;4935807;29;20031;-57
2024/02/05 03:55:06;;;;;;;5.03;3.20;;;22.00;99.90;;;;;;4937225;29;20024;-57
2024/02/05 03:57:35;;;;;;;3.80;3.40;;;22.00;99.90;;;;;;4936988;29;20515;-57
2024/02/05 04:00:04;;;;;;;4.07;3.05;;;22.00;99.90;;;;;;4936985;29;20369;-56
2024/02/05 04:02:30;;;;;;;5.35;3.42;;;22.00;99.90;;;;;;4936832;29;20412;-56
2024/02/05 04:04:57;;;;;;;5.13;3.22;;;22.00;99.90;;;;;;4936835;29;20495;-57
2024/02/05 04:07:24;;;;;;;4.53;3.40;;;22.00;99.90;;;;;;4919930;29;20489;-57
2024/02/05 04:09:49;;;;;;;3.85;2.85;;;21.90;99.90;;;;;;4936698;29;20111;-57
2024/02/05 04:12:15;;;;;;;5.57;3.20;;;22.00;99.90;;;;;;4936651;29;20095;-57
2024/02/05 04:14:41;;;;;;;4.13;3.30;;;21.90;99.90;;;;;;4936523;29;20024;-57
2024/02/05 04:17:10;;;;;;;5.93;3.42;;;21.90;99.90;;;;;;4936726;29;20042;-57
2024/02/05 04:19:39;;;;;;;3.22;2.72;;;21.90;99.90;;;;;;4936665;29;20480;-57
2024/02/05 04:22:05;;;;;;;6.00;3.83;;;21.90;99.90;;;;;;4919237;29;20039;-57
2024/02/05 04:24:31;;;;;;;5.00;3.10;;;21.90;99.90;;;;;;4936587;29;20043;-57
2024/02/05 04:26:57;;;;;;;6.32;3.17;;;21.90;99.90;;;;;;4935568;29;20110;-57
2024/02/05 04:29:24;;;;;;;4.00;2.88;;;21.90;99.90;;;;;;4936226;29;20033;-58
2024/02/05 04:31:50;;;;;;;4.88;3.45;;;21.90;99.90;;;;;;4935491;29;20381;-55
2024/02/05 04:34:17;;;;;;;7.65;3.25;;;21.90;99.90;;;;;;4935672;29;20024;-55
2024/02/05 04:36:42;;;;;;;4.68;2.80;;;21.80;99.90;;;;;;4935095;29;20495;-58
2024/02/05 04:39:10;;;;;;;4.60;3.00;;;21.80;99.90;;;;;;4935695;29;20019;-58
2024/02/05 04:41:37;;;;;;;4.53;2.60;;;21.80;99.90;;;;;;4935498;29;20035;-57
2024/02/05 04:44:03;;;;;;;5.63;3.35;;;21.80;99.90;;;;;;4918635;29;20038;-57
2024/02/05 04:46:28;;;;;;;3.38;2.60;;;21.80;99.90;;;;;;4935360;29;20020;-58
2024/02/05 04:48:54;;;;;;;5.07;2.80;;;21.80;99.90;;;;;;4935603;29;20460;-57
2024/02/05 04:51:20;;;;;;;4.20;2.78;;;21.80;99.90;;;;;;4935851;29;20389;-58
2024/02/05 04:53:46;;;;;;;6.18;3.40;;;21.80;99.90;;;;;;4918913;29;20068;-57
2024/02/05 04:56:11;;;;;;;4.30;2.78;;;21.80;99.90;;;;;;4918679;29;20043;-57
2024/02/05 04:58:37;;;;;;;4.72;2.90;;;21.80;99.90;;;;;;4935844;29;20425;-57
2024/02/05 05:01:03;;;;;;;4.68;2.88;;;21.80;99.90;;;;;;4936038;29;20378;-57
2024/02/05 05:03:29;;;;;;;4.55;2.58;;;21.80;99.90;;;;;;4935523;29;20035;-58
2024/02/05 05:05:55;;;;;;;5.00;2.90;;;21.70;99.90;;;;;;4935762;29;20031;-56
2024/02/05 05:08:21;;;;;;;3.53;2.40;;;21.70;99.90;;;;;;4918660;29;20067;-56
2024/02/05 05:10:47;;;;;;;4.93;2.75;;;21.70;99.90;;;;;;4918567;29;20030;-56
2024/02/05 05:13:13;;;;;;;7.78;2.65;;;21.70;99.90;;;;;;4935504;29;20035;-57
2024/02/05 05:15:40;;;;;;;5.20;2.72;;;21.70;99.90;;;;;;4935550;29;20030;-56
2024/02/05 05:18:06;;;;;;;4.55;2.47;;;21.70;99.90;;;;;;4935749;29;20051;-56
2024/02/05 05:20:32;;;;;;;4.80;2.63;;;21.70;99.90;;;;;;4935446;29;20362;-57
2024/02/05 05:22:58;;;;;;;6.97;3.00;;;21.70;99.90;;;;;;4935353;29;20116;-57
2024/02/05 05:25:23;;;;;;;5.65;2.65;;;21.70;99.90;;;;;;4935293;29;20444;-57
2024/02/05 05:27:49;;;;;;;6.07;2.33;;;21.70;99.90;;;;;;4935407;29;20535;-57
2024/02/05 05:30:15;;;;;;;3.85;2.72;;;21.70;99.90;;;;;;4918205;29;20114;-57
2024/02/05 05:32:41;;;;;;;4.43;2.80;;;21.60;99.90;;;;;;4935288;29;20034;-57
2024/02/05 05:35:08;;;;;;;4.47;2.83;;;21.60;99.90;;;;;;4918363;29;20115;-57
2024/02/05 05:37:34;;;;;;;4.97;2.92;;;21.60;99.90;;;;;;4935364;29;20106;-57
2024/02/05 05:39:59;;;;;;;5.05;2.80;;;21.60;99.90;;;;;;4935069;29;20532;-57
2024/02/05 05:42:28;;;;;;;5.22;2.47;;;21.60;99.90;;;;;;4935121;29;20039;-56
2024/02/05 05:44:54;;;;;;;3.58;2.28;;;21.60;99.90;;;;;;4935200;29;20477;-57
2024/02/05 05:47:20;;;;;;;4.00;2.38;;;21.60;99.90;;;;;;4935079;29;20149;-57
2024/02/05 05:49:45;;;;;;;6.30;2.58;;;21.60;99.90;;;;;;4935067;29;20503;-57
2024/02/05 05:52:11;;;;;;;6.55;2.75;;;21.60;99.90;;;;;;4935098;29;20477;-57
2024/02/05 05:54:37;;;;;;;6.82;2.88;;;21.60;99.90;;;;;;4935136;29;20039;-58
2024/02/05 05:57:05;;;;;;;8.35;3.42;;;21.60;99.90;;;;;;4917958;29;20144;-58
2024/02/05 05:59:31;;;;;;;2.92;2.30;;;21.60;99.90;;;;;;4935072;29;20035;-57
2024/02/05 06:01:57;;;;;;;6.05;2.47;;;21.50;99.90;;;;;;4932608;29;20567;-57
2024/02/05 06:04:23;;;;;;;5.35;3.42;;;21.50;99.90;;;;;;4931523;29;20059;-58
2024/02/05 06:06:48;;;;;;;5.22;2.90;;;21.50;99.90;;;;;;4932904;29;20106;-58
2024/02/05 06:09:18;;;;;;;7.28;2.97;;;21.50;99.90;;;;;;4932809;29;20099;-57
2024/02/05 06:11:47;;;;;;;4.50;2.58;;;21.50;99.90;;;;;;4932916;29;20028;-57
2024/02/05 06:14:13;;;;;;;4.45;2.97;;;21.50;99.90;;;;;;4932838;29;20030;-56
2024/02/05 06:16:39;;;;;;;3.15;2.35;;;21.50;99.90;;;;;;4916358;29;20040;-57
2024/02/05 06:19:05;;;;;;;3.90;2.25;;;21.50;99.90;;;;;;4934922;29;20027;-56
2024/02/05 06:21:31;;;;;;;5.43;2.70;;;21.50;99.90;;;;;;4934716;29;20039;-56
2024/02/05 06:23:56;;;;;;;5.85;2.67;;;21.50;99.90;;;;;;4934757;29;20106;-56
2024/02/05 06:26:22;;;;;;;4.30;2.28;;;21.40;99.90;;;;;;4934674;29;20027;-57
2024/02/05 06:28:48;;;;;;;3.97;2.58;;;21.40;99.90;;;;;;4934738;29;20104;-56
2024/02/05 06:31:14;;;;;;;3.88;2.40;;;21.40;99.90;;;;;;4934577;29;20035;-57
2024/02/05 06:33:40;;;;;;;6.25;2.97;;;21.40;99.90;;;;;;4917842;29;20110;-57
2024/02/05 06:36:08;;;;;;;5.80;2.65;;;21.40;99.90;;;;;;4934551;29;20447;-57
2024/02/05 06:38:34;;;;;;;3.55;2.13;;;21.40;99.90;;;;;;4934542;29;20465;-57
2024/02/05 06:41:00;;;;;;;6.32;2.40;;;21.40;99.90;;;;;;4934428;29;20034;-57
2024/02/05 06:43:26;;;;;;;4.60;2.70;;;21.40;99.90;;;;;;4934537;29;20495;-57
2024/02/05 06:45:51;;;;;;;4.35;2.55;;;21.40;99.90;;;;;;4934498;29;20107;-57
2024/02/05 06:48:17;;;;;;;3.45;2.35;;;21.40;99.90;;;;;;4934389;29;20472;-57
2024/02/05 06:50:43;;;;;;;4.18;2.60;;;21.30;99.90;;;;;;4935913;29;20083;-57
2024/02/05 06:53:09;;;;;;;3.60;2.10;;;21.30;99.90;;;;;;4938148;29;20028;-58
2024/02/05 06:55:35;;;;;;;3.75;2.55;;;21.30;99.90;;;;;;4937891;29;20111;-57
2024/02/05 06:58:00;;;;;;;6.00;2.22;;;21.30;99.90;;;;;;4938070;29;20044;-57
2024/02/05 07:00:26;;;;;;;3.22;2.35;;;21.30;99.90;;;;;;4936305;29;20508;-56
2024/02/05 07:02:52;;;;;;;3.90;2.58;;;21.30;99.90;;;;;;4920782;29;20162;-57
2024/02/05 07:05:20;;;;;;;6.13;2.75;;;21.30;99.90;;;;;;4937844;29;20028;-57
2024/02/05 07:07:46;;;;;;;;;;;21.30;99.90;;;;;;4938152;29;20543;-57
2024/02/05 07:10:12;;;;;;;6.70;2.60;;;21.20;99.90;;;;;;4937969;29;19911;-57
2024/02/05 07:12:37;;;;;;;6.90;3.25;;;21.20;99.90;;;;;;4937733;29;20028;-57
2024/02/05 07:15:03;;;;;;;3.65;2.63;;;21.30;99.90;;;;;;4937757;29;20217;-57
2024/02/05 07:17:34;;;;;;;3.95;2.53;;;21.20;99.90;;;;;;4937458;29;20543;-56
2024/02/05 07:20:03;;;;;;;5.78;2.45;;;21.20;99.90;;;;;;4937503;29;20036;-56
2024/02/05 07:22:30;;;;;;;4.95;2.50;;;21.20;99.90;;;;;;4937422;29;20035;-57
2024/02/05 07:24:56;;;;;;;3.67;2.60;;;21.20;99.90;;;;;;4937529;29;20020;-57
2024/02/05 07:27:23;;;;;;;5.50;2.33;;;21.20;99.90;;;;;;4937400;29;20460;-57
2024/02/05 07:29:49;;;;;;;3.15;2.22;;;21.20;99.90;;;;;;4937423;29;20082;-57
2024/02/05 07:32:15;;;;;;;5.20;2.47;;;21.20;99.90;;;;;;4937313;29;20082;-57
2024/02/05 07:34:41;;;;;;;4.80;2.75;;;21.20;99.90;;;;;;4937461;29;20057;-57
2024/02/05 07:37:07;;;;;;;3.15;2.25;;;21.20;99.90;;;;;;4937177;29;20026;-57
2024/02/05 07:39:33;;;;;;;5.05;2.75;;;21.20;99.90;;;;;;4937224;29;20051;-57
2024/02/05 07:41:59;;;;;;;4.47;2.50;;;21.20;99.90;;;;;;4935902;29;20496;-57
2024/02/05 07:44:26;;;;;;;2.90;2.38;;;21.20;99.90;;;;;;4937118;29;20031;-57
2024/02/05 07:46:52;;;;;;;2.75;2.05;;;21.10;99.90;;;;;;4936967;29;20028;-57
2024/02/05 07:49:19;;;;;;;3.35;2.35;;;21.10;99.90;;;;;;4936949;29;20051;-57
2024/02/05 07:51:46;;;;;;;6.10;3.25;;;21.10;99.90;;;;;;4937368;29;20357;-57
2024/02/05 07:54:13;;;;;;;4.03;2.30;;;21.20;99.90;;;;;;4937166;29;20016;-57
2024/02/05 07:56:42;;;;;;;6.63;2.83;;;21.20;99.90;;;;;;4936965;29;20035;-57
2024/02/05 07:59:09;;;;;;;6.93;3.05;;;21.20;99.90;;;;;;4936973;29;20024;-57
2024/02/05 08:01:35;;;;;;;3.72;2.60;;;21.20;99.90;;;;;;4936485;29;20052;-57
2024/02/05 08:04:00;;;;;;;5.47;2.50;;;21.20;99.90;;;;;;4936676;29;20388;-57
2024/02/05 08:06:28;;;;;;;4.03;2.83;;;21.20;99.90;;;;;;4936735;29;20023;-58
2024/02/05 08:08:57;;;;;;;;;;;21.20;99.90;;;;;;4919982;29;20038;-57
2024/02/05 08:11:26;;;;;;;3.22;2.50;;;21.20;99.90;;;;;;4919553;29;19907;-56
2024/02/05 08:13:52;;;;;;;3.33;2.28;;;21.20;99.90;;;;;;4936524;29;20028;-56
2024/02/05 08:16:18;;;;;;;4.07;2.58;;;21.20;99.90;;;;;;4936469;29;20075;-56
2024/02/05 08:18:44;;;;;;;4.18;2.80;;;21.30;99.90;;;;;;4936616;29;20023;-57
2024/02/05 08:21:10;;;;;;;5.10;2.72;;;21.30;99.90;;;;;;4936469;29;20464;-56
2024/02/05 08:23:36;;;;;;;5.95;2.47;;;21.30;99.90;;;;;;4935176;29;20114;-57
2024/02/05 08:26:03;;;;;;;4.20;2.80;;;21.30;99.90;;;;;;4936448;29;20027;-57
2024/02/05 08:28:28;;;;;;;4.90;2.35;;;21.30;99.90;;;;;;4936334;29;20019;-57
2024/02/05 08:30:57;;;;;;;3.95;2.15;;;21.30;99.90;;;;;;4936135;29;20110;-58
2024/02/05 08:33:23;;;;;;;5.43;2.83;;;21.30;99.90;;;;;;4936177;29;20068;-56
2024/02/05 08:35:51;;;;;;;3.28;2.50;;;21.30;99.90;;;;;;4936141;29;20024;-57
2024/02/05 08:38:16;;;;;;;4.88;2.65;;;21.40;99.90;;;;;;4936466;29;20051;-57
2024/02/05 08:40:43;;;;;;;4.43;2.67;;;21.40;99.90;;;;;;4936012;29;20070;-57
2024/02/05 08:43:09;;;;;;;3.92;2.88;;;21.40;99.90;;;;;;4936224;29;20088;-57
2024/02/05 08:45:36;;;;;;;5.82;2.25;;;21.40;99.90;;;;;;4936027;29;20028;-57
2024/02/05 08:48:02;;;;;;;6.22;2.95;;;21.40;99.90;;;;;;4935972;29;20024;-57
2024/02/05 08:50:33;;;;;;;6.22;2.78;;;21.50;99.90;;;;;;4936004;29;20126;-57
2024/02/05 08:53:05;;;;;;;9.02;2.70;;;21.50;99.90;;;;;;4936061;29;20028;-57
2024/02/05 08:55:31;;;;;;;5.18;2.75;;;21.50;99.90;;;;;;4935858;29;20035;-57
2024/02/05 08:57:57;;;;;;;5.53;2.83;;;21.50;99.90;;;;;;4935622;29;20046;-57
2024/02/05 09:00:23;;;;;;;19.73;3.38;;;21.50;99.90;;;;;;4935491;29;20362;-57
2024/02/05 09:02:50;;;;;;;5.00;3.00;;;21.50;99.90;;;;;;4935833;29;20040;-57
2024/02/05 09:05:16;;;;;;;4.75;2.88;;;21.50;99.90;;;;;;4936073;29;20034;-57
2024/02/05 09:07:42;;;;;;;5.30;3.00;;;21.60;99.90;;;;;;4935542;29;20090;-57
2024/02/05 09:10:08;;;;;;;6.82;2.75;;;21.60;99.90;;;;;;4918468;29;20031;-57
2024/02/05 09:12:35;;;;;;;3.85;3.00;;;21.60;99.90;;;;;;4935141;29;20027;-57
2024/02/05 09:15:01;;;;;;;4.78;2.85;;;21.60;99.90;;;;;;4935297;29;20031;-57
2024/02/05 09:17:27;;;;;;;6.85;3.08;;;21.50;99.90;;;;;;4935419;29;20024;-57
2024/02/05 09:19:53;;;;;;;4.53;2.85;;;21.60;99.90;;;;;;4935427;29;20470;-57
2024/02/05 09:22:19;;;;;;;7.28;2.92;;;21.60;99.90;;;;;;4935546;29;20071;-57
2024/02/05 09:24:45;;;;;;;7.53;3.80;;;21.60;99.90;;;;;;4935278;29;20027;-57
2024/02/05 09:27:11;;;;;;;5.55;3.22;;;21.60;99.90;;;;;;4935266;29;20031;-57
2024/02/05 09:29:37;;;;;;;5.30;3.08;;;21.70;99.90;;;;;;4935289;29;20101;-58
2024/02/05 09:32:05;;;;;;;5.10;2.80;;;21.60;99.90;;;;;;4935231;29;20471;-58
2024/02/05 09:34:31;;;;;;;7.78;3.00;;;21.70;99.90;;;;;;4935207;29;20019;-57
2024/02/05 09:36:57;;;;;;;6.60;2.95;;;21.70;99.90;;;;;;4935216;29;20112;-57
2024/02/05 09:39:23;;;;;;;4.40;2.90;;;21.70;99.90;;;;;;4935021;29;20067;-57
2024/02/05 09:41:52;;;;;;;7.32;3.30;;;21.70;99.90;;;;;;4935132;29;20075;-57
2024/02/05 09:44:19;;;;;;;7.97;3.00;;;21.70;99.90;;;;;;4935291;29;20024;-58
2024/02/05 09:46:51;;;;;;;5.00;3.00;;;21.80;99.90;;;;;;4934926;29;20388;-58
2024/02/05 09:49:21;;;;;;;4.75;3.10;;;21.80;99.90;;;;;;4935168;29;20028;-57
2024/02/05 09:51:47;;;;;;;7.35;2.92;;;21.80;99.90;;;;;;4935014;29;20485;-58
2024/02/05 09:54:16;;;;;;;5.57;3.33;;;21.80;99.90;;;;;;4934950;29;20071;-58
2024/02/05 09:56:43;;;;;;;5.90;2.97;;;21.90;99.90;;;;;;4934894;29;20059;-57
2024/02/05 09:59:11;;;;;;;4.85;2.50;;;21.90;99.90;;;;;;4934853;29;20095;-57
2024/02/05 10:01:38;;;;;;;5.85;3.58;;;21.90;99.90;;;;;;4934549;29;20445;-57
2024/02/05 10:04:08;;;;;;;5.20;3.22;;;21.90;99.90;;;;;;4917826;29;20019;-57
2024/02/05 10:06:39;;;;;;;6.43;3.58;;;21.90;99.90;;;;;;4934820;29;20032;-57
2024/02/05 10:09:08;;;;;;;7.43;3.78;;;21.90;99.90;;;;;;4935045;29;20043;-58
2024/02/05 10:11:35;;;;;;;8.30;3.38;;;22.00;99.90;;;;;;4934855;29;20048;-58
2024/02/05 10:14:01;;;;;;;6.50;3.22;;;22.00;99.90;;;;;;4934694;29;20502;-58
2024/02/05 10:16:27;;;;;;;5.85;3.17;;;22.00;99.90;;;;;;4934913;29;20043;-57
2024/02/05 10:18:53;;;;;;;6.05;3.38;;;22.00;99.90;;;;;;4934827;29;20386;-57
2024/02/05 10:21:19;;;;;;;6.53;3.30;;;22.00;99.90;;;;;;4917753;29;20036;-57
2024/02/05 10:23:55;;;;;;;8.23;4.13;;;22.00;99.90;;;;;;4934610;29;20023;-57
2024/02/05 10:26:23;;;;;;;7.22;3.75;;;22.10;99.90;;;;;;4937427;29;20027;-57
2024/02/05 10:28:49;;;;;;;6.78;3.47;;;22.10;99.90;;;;;;4922039;29;20032;-58
2024/02/05 10:31:16;;;;;;;7.60;3.78;;;22.10;99.90;;;;;;4938539;29;20031;-58
2024/02/05 10:33:43;;;;;;;9.48;3.40;;;22.20;99.90;;;;;;4938478;29;20477;-58
2024/02/05 10:36:15;;;;;;;9.18;4.90;;;22.20;99.90;;;;;;4938216;29;20051;-58
2024/02/05 10:38:41;;;;;;;5.50;3.58;;;22.20;99.90;;;;;;4938191;29;20086;-58
2024/02/05 10:41:11;;;;;;;6.07;3.90;;;22.20;99.90;;;;;;4938169;29;20472;-58
2024/02/05 10:43:39;;;;;;;7.78;3.65;;;22.30;99.90;;;;;;4938401;29;20030;-57
2024/02/05 10:46:05;;;;;;;5.38;3.40;;;22.30;99.90;;;;;;4938184;29;20028;-58
2024/02/05 10:48:31;;;;;;;7.38;4.00;;;22.30;99.90;;;;;;4938119;29;20494;-57
2024/02/05 10:50:57;;;;;;;5.03;3.22;;;22.30;99.90;;;;;;4938163;29;20052;-57
2024/02/05 10:53:24;;;;;;;6.45;3.55;;;22.30;99.90;;;;;;4938346;29;20024;-58
2024/02/05 10:55:51;;;;;;;5.43;3.40;;;22.40;99.90;;;;;;4938316;29;20493;-57
2024/02/05 10:58:18;;;;;;;9.43;3.70;;;22.40;99.90;;;;;;4937972;29;20023;-57
2024/02/05 11:00:44;;;;;;;5.63;3.58;;;22.40;99.90;;;;;;4937666;29;20914;-57
2024/02/05 11:03:13;;;;;;;5.90;3.72;;;22.50;99.90;;;;;;4937986;29;20385;-57
2024/02/05 11:05:43;;;;;;;5.97;3.40;;;22.50;99.90;;;;;;4937921;29;20024;-58
2024/02/05 11:08:12;;;;;;;7.00;4.13;;;22.50;99.90;;;;;;4937747;29;20035;-57
2024/02/05 11:10:44;;;;;;;5.22;3.92;;;22.50;99.90;;;;;;4937764;29;20031;-59
2024/02/05 11:13:19;;;;;;;5.68;3.53;;;22.50;99.90;;;;;;4937739;29;20091;-58
2024/02/05 11:15:47;;;;;;;7.82;4.28;;;22.60;99.90;;;;;;4920436;29;20122;-58
2024/02/05 11:18:24;;;;;;;6.60;4.10;;;22.60;99.90;;;;;;4937599;29;20019;-58
2024/02/05 11:20:52;;;;;;;5.13;3.65;;;22.60;99.90;;;;;;4937557;29;20148;-59
2024/02/05 11:23:19;;;;;;;5.80;3.42;;;22.60;99.90;;;;;;4937392;29;20079;-58
2024/02/05 11:25:47;;;;;;;8.27;4.25;;;22.60;99.90;;;;;;4937398;29;20106;-56
2024/02/05 11:28:13;;;;;;;4.57;3.47;;;22.60;99.90;;;;;;4937365;29;20027;-57
2024/02/05 11:30:46;;;;;;;5.25;3.45;;;22.70;99.90;;;;;;4937432;29;20448;-57
2024/02/05 11:33:12;;;;;;;9.77;3.83;;;22.70;99.90;;;;;;4937376;29;20035;-57
2024/02/05 11:36:09;;;;;;;6.25;3.42;;;22.70;99.90;;;;;;4936989;29;20027;-56
2024/02/05 11:38:39;;;;;;;8.07;4.22;;;22.70;99.90;;;;;;4936102;29;20493;-56
2024/02/05 11:41:05;;;;;;;6.15;3.45;;;22.70;99.90;;;;;;4937101;29;20570;-56
2024/02/05 11:43:30;;;;;;;7.93;3.83;;;22.80;99.90;;;;;;4936991;29;20059;-57
2024/02/05 11:45:56;;;;;;;8.00;4.00;;;22.80;99.90;;;;;;4937263;29;20031;-56
2024/02/05 11:48:22;;;;;;;5.85;4.07;;;22.80;99.90;;;;;;4937003;29;20031;-56
2024/02/05 11:50:49;;;;;;;7.05;4.38;;;22.80;99.90;;;;;;4937091;29;20039;-57
2024/02/05 11:53:20;;;;;;;8.80;4.15;;;22.90;99.90;;;;;;4936970;29;20043;-57
2024/02/05 11:55:46;;;;;;;7.03;3.85;;;22.90;99.90;;;;;;4936471;29;20027;-57
2024/02/05 11:58:12;;;;;;;7.43;3.83;;;22.90;99.90;;;;;;4936747;29;20039;-58
2024/02/05 12:00:39;;;;;;;5.35;3.53;;;22.90;99.90;;;;;;4936477;29;20045;-57
2024/02/05 12:03:06;;;;;;;5.50;3.38;;;22.90;99.90;;;;;;4934955;29;20118;-58
2024/02/05 12:05:32;;;;;;;7.43;3.90;;;23.00;99.90;;;;;;4926347;29;20021;-58
2024/02/05 12:08:00;;;;;;;7.30;3.70;;;23.00;99.90;;;;;;4919093;29;20481;-57
2024/02/05 12:10:26;;;;;;;7.18;3.70;;;23.00;99.90;;;;;;4936238;29;20023;-58
2024/02/05 12:12:52;;;;;;;7.18;3.42;;;23.00;99.90;;;;;;4935785;29;20102;-58
2024/02/05 12:15:19;;;;;;;7.95;3.78;;;23.00;99.90;;;;;;4936209;29;20027;-57
2024/02/05 12:17:46;;;;;;;11.38;4.28;;;23.10;99.90;;;;;;4936580;29;20039;-57
2024/02/05 12:20:18;;;;;;;8.20;5.13;;;23.10;99.90;;;;;;4934731;29;20028;-61
2024/02/05 12:22:46;;;;;;;7.07;4.07;;;23.10;99.90;;;;;;4933958;29;20032;-60
2024/02/05 12:25:13;;;;;;;10.48;4.55;;;23.10;99.90;;;;;;4935882;29;20020;-60
2024/02/05 12:27:39;;;;;;;13.50;4.60;;;23.10;99.90;;;;;;4933764;29;20039;-57
2024/02/05 12:30:08;;;;;;;9.43;3.90;;;23.10;99.90;;;;;;4936219;29;20136;-56
2024/02/05 12:32:34;;;;;;;10.32;4.80;;;23.10;99.90;;;;;;4919156;29;20413;-57
2024/02/05 12:35:00;;;;;;;9.48;3.90;;;23.10;99.90;;;;;;4936202;29;20030;-56
2024/02/05 12:37:27;;;;;;;13.68;5.53;;;23.10;99.90;;;;;;4936335;29;20024;-57
2024/02/05 12:39:56;;;;;;;9.43;4.72;;;23.10;99.90;;;;;;4935460;29;20028;-57
2024/02/05 12:42:26;;;;;;;10.65;4.70;;;23.10;99.90;;;;;;4935628;29;20035;-57
2024/02/05 12:44:53;;;;;;;6.20;3.78;;;23.10;99.90;;;;;;4936156;29;20031;-56
2024/02/05 12:47:19;;;;;;;9.48;4.38;;;23.10;99.90;;;;;;4935868;29;20032;-57